createdAt,value
2022-12-10T00:01:41.378Z,3.49
2022-12-10T00:04:09.733Z,3.48
2022-12-10T00:06:40.367Z,3.47
2022-12-10T00:09:12.681Z,3.46
2022-12-10T00:11:41.489Z,3.42
2022-12-10T00:14:13.063Z,3.35
2022-12-10T00:16:42.116Z,3.27
2022-12-10T00:19:10.430Z,3.19
2022-12-10T00:21:39.476Z,3.19
2022-12-10T00:24:08.318Z,3.13
2022-12-10T00:26:38.622Z,3.06
2022-12-10T00:29:08.592Z,3.09
2022-12-10T00:31:39.725Z,3.09
2022-12-10T00:34:10.922Z,3.09
2022-12-10T00:36:41.418Z,3.09
2022-12-10T00:39:09.668Z,3.08
2022-12-10T00:41:37.945Z,3.04
2022-12-10T00:44:07.026Z,3.01
2022-12-10T00:46:35.488Z,3.01
2022-12-10T00:49:05.365Z,2.99
2022-12-10T00:51:34.023Z,3.00
2022-12-10T00:54:02.593Z,3.02
2022-12-10T00:56:34.527Z,3.02
2022-12-10T00:59:03.571Z,3.06
2022-12-10T01:01:33.908Z,3.14
2022-12-10T01:04:05.634Z,3.19
2022-12-10T01:06:35.970Z,3.31
2022-12-10T01:09:08.036Z,3.41
2022-12-10T01:11:39.279Z,3.34
2022-12-10T01:14:09.169Z,3.44
2022-12-10T01:16:37.663Z,3.48
2022-12-10T01:19:07.751Z,3.45
2022-12-10T01:21:36.750Z,3.52
2022-12-10T01:24:05.552Z,3.54
2022-12-10T01:26:35.939Z,3.55
2022-12-10T01:29:05.649Z,3.50
2022-12-10T01:31:35.966Z,3.43
2022-12-10T01:34:07.731Z,3.41
2022-12-10T01:36:38.072Z,3.41
2022-12-10T01:39:08.542Z,3.31
2022-12-10T01:41:39.066Z,3.33
2022-12-10T01:44:45.719Z,3.35
2022-12-10T01:47:14.106Z,3.33
2022-12-10T01:49:43.797Z,3.32
2022-12-10T01:52:14.506Z,3.28
2022-12-10T01:54:45.013Z,3.15
2022-12-10T01:57:17.118Z,3.19
2022-12-10T01:59:47.599Z,3.17
2022-12-10T02:02:24.865Z,3.13
2022-12-10T02:05:04.662Z,3.08
2022-12-10T02:07:42.794Z,3.03
2022-12-10T02:10:19.856Z,2.90
2022-12-10T02:12:53.834Z,2.80
2022-12-10T02:15:26.875Z,2.82
2022-12-10T02:17:58.894Z,2.83
2022-12-10T02:20:37.568Z,2.86
2022-12-10T02:23:12.262Z,2.79
2022-12-10T02:25:47.948Z,2.69
2022-12-10T02:28:24.785Z,2.73
2022-12-10T02:30:55.812Z,2.67
2022-12-10T02:33:26.543Z,2.78
2022-12-10T02:35:57.534Z,2.90
2022-12-10T02:38:29.414Z,2.90
2022-12-10T02:41:04.031Z,2.91
2022-12-10T02:43:35.402Z,3.09
2022-12-10T02:46:08.117Z,3.13
2022-12-10T02:48:38.615Z,3.10
2022-12-10T02:51:07.144Z,3.05
2022-12-10T02:53:42.955Z,3.20
2022-12-10T02:56:19.887Z,3.17
2022-12-10T02:59:02.437Z,3.19
2022-12-10T03:01:44.920Z,3.23
2022-12-10T03:04:16.987Z,3.27
2022-12-10T03:06:49.208Z,3.30
2022-12-10T03:09:22.038Z,3.38
2022-12-10T03:11:58.575Z,3.35
2022-12-10T03:14:29.944Z,3.42
2022-12-10T03:17:01.391Z,3.47
2022-12-10T03:19:34.638Z,3.54
2022-12-10T03:22:05.093Z,3.45
2022-12-10T03:24:35.081Z,3.41
2022-12-10T03:27:05.590Z,3.40
2022-12-10T03:29:37.031Z,3.27
2022-12-10T03:32:08.294Z,3.17
2022-12-10T03:34:37.867Z,3.16
2022-12-10T03:37:07.207Z,3.11
2022-12-10T03:39:36.068Z,3.06
2022-12-10T03:42:04.354Z,3.19
2022-12-10T03:44:34.084Z,3.20
2022-12-10T03:47:03.109Z,3.17
2022-12-10T03:49:32.864Z,3.21
2022-12-10T03:52:01.147Z,3.19
2022-12-10T03:54:29.438Z,3.28
2022-12-10T03:56:57.757Z,3.26
2022-12-10T03:59:26.011Z,3.30
2022-12-10T04:01:55.582Z,3.29
2022-12-10T04:04:23.933Z,3.30
2022-12-10T04:07:10.135Z,3.30
2022-12-10T04:09:38.502Z,3.29
2022-12-10T04:12:07.220Z,3.23
2022-12-10T04:14:53.169Z,3.31
2022-12-10T04:17:21.438Z,3.32
2022-12-10T04:19:49.963Z,3.24
2022-12-10T04:22:37.387Z,3.19
2022-12-10T04:25:23.654Z,3.06
2022-12-10T04:27:51.988Z,3.00
2022-12-10T04:30:20.669Z,3.03
2022-12-10T04:32:49.023Z,3.10
2022-12-10T04:35:17.442Z,3.04
2022-12-10T04:37:47.169Z,2.97
2022-12-10T04:40:15.739Z,2.94
2022-12-10T04:42:43.940Z,2.99
2022-12-10T04:45:12.462Z,3.06
2022-12-10T04:47:40.697Z,2.98
2022-12-10T04:50:09.949Z,2.93
2022-12-10T04:52:38.468Z,2.86
2022-12-10T04:55:08.975Z,2.95
2022-12-10T04:57:37.438Z,2.91
2022-12-10T05:00:06.675Z,3.02
2022-12-10T05:02:35.215Z,3.02
2022-12-10T05:05:03.795Z,2.95
2022-12-10T05:07:32.104Z,3.01
2022-12-10T05:10:00.378Z,3.12
2022-12-10T05:12:30.119Z,3.19
2022-12-10T05:14:58.484Z,3.28
2022-12-10T05:17:26.797Z,3.28
2022-12-10T05:19:55.036Z,3.32
2022-12-10T05:22:40.899Z,3.45
2022-12-10T05:25:10.008Z,3.49
2022-12-10T05:27:39.650Z,3.58
2022-12-10T05:30:10.778Z,3.62
2022-12-10T05:32:39.287Z,3.78
2022-12-10T05:35:08.358Z,3.82
2022-12-10T05:37:36.765Z,3.63
2022-12-10T05:40:06.163Z,3.74
2022-12-10T05:42:34.535Z,3.80
2022-12-10T05:45:04.384Z,3.55
2022-12-10T05:47:32.603Z,3.61
2022-12-10T05:50:01.292Z,3.69
2022-12-10T05:52:29.570Z,3.70
2022-12-10T05:54:57.914Z,3.73
2022-12-10T05:57:26.136Z,3.55
2022-12-10T05:59:54.306Z,3.71
2022-12-10T06:02:24.234Z,3.72
2022-12-10T06:04:52.608Z,3.94
2022-12-10T06:07:20.933Z,3.89
2022-12-10T06:09:49.208Z,3.87
2022-12-10T06:12:17.754Z,3.92
2022-12-10T06:14:46.039Z,3.95
2022-12-10T06:17:14.408Z,4.00
2022-12-10T06:19:44.344Z,3.79
2022-12-10T06:22:13.820Z,3.97
2022-12-10T06:24:42.105Z,4.08
2022-12-10T06:27:10.514Z,4.05
2022-12-10T06:29:39.056Z,3.99
2022-12-10T06:32:07.351Z,3.92
2022-12-10T06:34:39.873Z,3.98
2022-12-10T06:37:12.435Z,3.98
2022-12-10T06:39:40.779Z,4.03
2022-12-10T06:42:10.917Z,4.09
2022-12-10T06:44:39.394Z,3.98
2022-12-10T06:47:07.782Z,4.10
2022-12-10T06:49:36.069Z,4.14
2022-12-10T06:52:04.755Z,3.97
2022-12-10T06:54:34.667Z,4.07
2022-12-10T06:57:03.241Z,4.03
2022-12-10T06:59:31.581Z,3.93
2022-12-10T07:01:59.902Z,4.08
2022-12-10T07:04:28.319Z,4.26
2022-12-10T07:06:56.881Z,4.16
2022-12-10T07:09:25.154Z,4.13
2022-12-10T07:11:54.795Z,4.07
2022-12-10T07:14:23.285Z,3.99
2022-12-10T07:16:51.577Z,3.98
2022-12-10T07:19:19.877Z,3.77
2022-12-10T07:21:48.147Z,4.04
2022-12-10T07:24:18.892Z,4.07
2022-12-10T07:26:48.219Z,4.17
2022-12-10T07:29:19.828Z,4.16
2022-12-10T07:31:49.627Z,4.10
2022-12-10T07:34:18.376Z,4.00
2022-12-10T07:36:46.695Z,3.85
2022-12-10T07:39:18.467Z,4.04
2022-12-10T07:41:47.451Z,4.08
2022-12-10T07:44:17.777Z,3.89
2022-12-10T07:46:46.042Z,4.07
2022-12-10T07:49:14.820Z,4.10
2022-12-10T07:51:46.627Z,4.14
2022-12-10T07:54:15.053Z,4.10
2022-12-10T07:56:43.366Z,4.07
2022-12-10T07:59:12.041Z,4.02
2022-12-10T08:01:42.841Z,4.06
2022-12-10T08:04:11.149Z,3.93
2022-12-10T08:06:39.442Z,4.07
2022-12-10T08:09:07.771Z,3.91
2022-12-10T08:11:36.042Z,3.97
2022-12-10T08:14:04.370Z,4.08
2022-12-10T08:16:33.402Z,4.17
2022-12-10T08:19:03.676Z,4.07
2022-12-10T08:21:34.632Z,4.13
2022-12-10T08:24:03.268Z,4.31
2022-12-10T08:26:34.178Z,4.00
2022-12-10T08:29:03.302Z,4.10
2022-12-10T08:31:37.082Z,4.27
2022-12-10T08:34:12.659Z,4.21
2022-12-10T08:36:40.896Z,4.08
2022-12-10T08:39:11.305Z,4.33
2022-12-10T08:41:39.611Z,4.48
2022-12-10T08:44:07.888Z,4.57
2022-12-10T08:46:36.152Z,4.39
2022-12-10T08:49:05.056Z,4.24
2022-12-10T08:51:34.703Z,4.37
2022-12-10T08:54:03.040Z,4.42
2022-12-10T08:56:32.684Z,4.44
2022-12-10T08:59:01.009Z,4.41
2022-12-10T09:01:29.346Z,4.46
2022-12-10T09:03:57.721Z,4.49
2022-12-10T09:06:26.654Z,4.38
2022-12-10T09:08:56.868Z,4.43
2022-12-10T09:11:27.872Z,4.47
2022-12-10T09:13:56.638Z,4.42
2022-12-10T09:16:30.521Z,4.50
2022-12-10T09:18:59.133Z,4.59
2022-12-10T09:21:27.746Z,4.64
2022-12-10T09:23:57.437Z,4.41
2022-12-10T09:26:26.019Z,4.65
2022-12-10T09:28:55.684Z,4.79
2022-12-10T09:31:24.078Z,4.87
2022-12-10T09:33:54.251Z,4.72
2022-12-10T09:36:25.465Z,4.95
2022-12-10T09:38:58.412Z,5.02
2022-12-10T09:41:44.915Z,5.09
2022-12-10T09:44:23.258Z,5.23
2022-12-10T09:46:54.666Z,5.27
2022-12-10T09:49:32.716Z,5.05
2022-12-10T09:52:03.754Z,5.60
2022-12-10T09:54:35.408Z,6.20
2022-12-10T09:57:07.657Z,6.58
2022-12-10T09:59:40.773Z,7.18
2022-12-10T10:02:22.754Z,7.63
2022-12-10T10:04:52.654Z,7.35
2022-12-10T10:07:23.517Z,8.00
2022-12-10T10:09:57.174Z,7.94
2022-12-10T10:12:25.599Z,8.06
2022-12-10T10:14:53.875Z,8.30
2022-12-10T10:17:33.002Z,8.83
2022-12-10T10:20:01.924Z,8.31
2022-12-10T10:22:31.158Z,8.36
2022-12-10T10:25:03.534Z,8.22
2022-12-10T10:27:33.445Z,7.56
2022-12-10T10:30:05.302Z,7.43
2022-12-10T10:32:48.945Z,7.18
2022-12-10T10:35:27.773Z,7.11
2022-12-10T10:38:00.941Z,6.72
2022-12-10T10:40:34.871Z,6.56
2022-12-10T10:43:03.949Z,6.45
2022-12-10T10:45:42.651Z,6.31
2022-12-10T10:48:16.163Z,6.13
2022-12-10T10:50:46.231Z,6.31
2022-12-10T10:53:45.093Z,5.97
2022-12-10T10:56:18.902Z,5.98
2022-12-10T10:58:52.864Z,5.91
2022-12-10T11:01:21.894Z,6.28
2022-12-10T11:03:55.699Z,6.34
2022-12-10T11:06:24.528Z,6.44
2022-12-10T11:08:56.338Z,6.76
2022-12-10T11:11:34.491Z,7.02
2022-12-10T11:14:17.382Z,7.33
2022-12-10T11:16:45.797Z,7.38
2022-12-10T11:19:22.834Z,7.50
2022-12-10T11:21:52.904Z,7.38
2022-12-10T11:24:22.200Z,7.41
2022-12-10T11:27:04.057Z,7.57
2022-12-10T11:29:49.339Z,7.79
2022-12-10T11:32:35.549Z,8.00
2022-12-10T11:35:12.544Z,8.60
2022-12-10T11:37:45.452Z,8.92
2022-12-10T11:40:28.941Z,8.74
2022-12-10T11:43:08.710Z,8.71
2022-12-10T11:45:54.896Z,8.43
2022-12-10T11:48:38.952Z,8.27
2022-12-10T11:51:19.804Z,8.17
2022-12-10T11:54:03.127Z,7.88
2022-12-10T11:56:35.705Z,7.75
2022-12-10T11:59:46.235Z,7.75
2022-12-10T12:02:32.385Z,7.64
2022-12-10T12:05:20.897Z,7.43
2022-12-10T12:07:58.059Z,7.62
2022-12-10T12:10:54.046Z,7.48
2022-12-10T12:13:27.508Z,7.58
2022-12-10T12:16:01.852Z,7.08
2022-12-10T12:18:41.867Z,7.09
2022-12-10T12:21:13.091Z,6.99
2022-12-10T12:23:50.853Z,6.71
2022-12-10T12:26:25.748Z,6.73
2022-12-10T12:28:58.184Z,6.85
2022-12-10T12:31:34.062Z,6.87
2022-12-10T12:34:07.376Z,6.56
2022-12-10T12:36:36.904Z,6.45
2022-12-10T12:39:14.085Z,6.66
2022-12-10T12:41:49.138Z,7.12
2022-12-10T12:44:23.775Z,7.79
2022-12-10T12:46:53.904Z,8.42
2022-12-10T12:49:26.613Z,8.43
2022-12-10T12:51:59.132Z,8.47
2022-12-10T12:54:27.530Z,8.03
2022-12-10T12:57:11.391Z,7.68
2022-12-10T12:59:51.202Z,7.24
2022-12-10T13:02:46.841Z,7.01
2022-12-10T13:05:17.461Z,7.11
2022-12-10T13:07:47.228Z,7.02
2022-12-10T13:10:26.977Z,7.04
2022-12-10T13:13:18.038Z,7.47
2022-12-10T13:15:46.561Z,7.58
2022-12-10T13:18:36.937Z,7.81
2022-12-10T13:21:31.910Z,8.06
2022-12-10T13:24:12.936Z,8.30
2022-12-10T13:26:59.097Z,8.38
2022-12-10T13:29:28.957Z,8.33
2022-12-10T13:31:59.635Z,8.21
2022-12-10T13:34:38.312Z,7.84
2022-12-10T13:37:17.781Z,7.46
2022-12-10T13:39:56.128Z,7.18
2022-12-10T13:42:51.636Z,7.09
2022-12-10T13:45:32.984Z,6.95
2022-12-10T13:48:27.326Z,6.97
2022-12-10T13:51:12.043Z,7.00
2022-12-10T13:53:52.854Z,7.04
2022-12-10T13:56:30.083Z,6.97
2022-12-10T13:59:13.394Z,6.58
2022-12-10T14:01:50.553Z,6.74
2022-12-10T14:04:50.766Z,6.74
2022-12-10T14:07:21.457Z,6.66
2022-12-10T14:09:53.438Z,6.63
2022-12-10T14:12:27.616Z,6.49
2022-12-10T14:14:59.550Z,6.60
2022-12-10T14:17:34.573Z,6.72
2022-12-10T14:20:07.359Z,6.71
2022-12-10T14:22:40.460Z,6.66
2022-12-10T14:25:15.150Z,6.40
2022-12-10T14:27:43.667Z,6.29
2022-12-10T14:30:19.541Z,6.45
2022-12-10T14:32:48.880Z,6.45
2022-12-10T14:35:24.738Z,6.24
2022-12-10T14:37:58.313Z,6.22
2022-12-10T14:40:29.233Z,6.35
2022-12-10T14:43:05.898Z,6.44
2022-12-10T14:45:44.348Z,6.37
2022-12-10T14:48:14.112Z,6.48
2022-12-10T14:50:42.307Z,6.55
2022-12-10T14:53:16.855Z,6.37
2022-12-10T14:55:46.929Z,6.50
2022-12-10T14:58:19.981Z,6.43
2022-12-10T15:00:49.308Z,6.43
2022-12-10T15:03:28.056Z,6.50
2022-12-10T15:05:58.291Z,6.49
2022-12-10T15:08:29.395Z,6.49
2022-12-10T15:11:00.913Z,6.57
2022-12-10T15:13:35.404Z,6.59
2022-12-10T15:16:04.062Z,6.55
2022-12-10T15:18:34.661Z,6.63
2022-12-10T15:21:11.386Z,6.61
2022-12-10T15:23:43.651Z,6.57
2022-12-10T15:26:22.212Z,6.50
2022-12-10T15:28:51.879Z,6.46
2022-12-10T15:31:24.755Z,6.30
2022-12-10T15:33:55.651Z,6.27
2022-12-10T15:36:32.517Z,6.30
2022-12-10T15:39:05.708Z,6.14
2022-12-10T15:41:44.943Z,6.17
2022-12-10T15:44:26.324Z,6.27
2022-12-10T15:47:01.019Z,6.30
2022-12-10T15:49:29.525Z,6.31
2022-12-10T15:51:58.322Z,6.34
2022-12-10T15:54:33.920Z,6.38
2022-12-10T15:57:02.282Z,6.38
2022-12-10T15:59:30.606Z,6.31
2022-12-10T16:02:00.192Z,6.23
2022-12-10T16:04:28.542Z,6.28
2022-12-10T16:06:56.875Z,6.25
2022-12-10T16:09:25.177Z,6.23
2022-12-10T16:11:54.966Z,6.27
2022-12-10T16:14:23.289Z,6.17
2022-12-10T16:16:51.508Z,6.20
2022-12-10T16:19:22.902Z,6.20
2022-12-10T16:21:51.209Z,6.30
2022-12-10T16:24:19.497Z,6.24
2022-12-10T16:26:47.680Z,6.19
2022-12-10T16:29:19.225Z,6.23
2022-12-10T16:31:47.573Z,6.31
2022-12-10T16:34:15.844Z,6.38
2022-12-10T16:36:44.498Z,6.29
2022-12-10T16:39:15.152Z,6.25
2022-12-10T16:41:43.661Z,6.21
2022-12-10T16:44:12.369Z,6.29
2022-12-10T16:46:45.498Z,6.30
2022-12-10T16:49:13.922Z,6.33
2022-12-10T16:51:44.339Z,6.29
2022-12-10T16:54:14.723Z,6.28
2022-12-10T16:56:43.959Z,6.26
2022-12-10T16:59:12.203Z,6.20
2022-12-10T17:01:40.675Z,6.09
2022-12-10T17:04:12.298Z,6.04
2022-12-10T17:06:40.612Z,6.10
2022-12-10T17:09:08.765Z,6.12
2022-12-10T17:11:49.204Z,6.08
2022-12-10T17:14:24.463Z,5.95
2022-12-10T17:16:54.354Z,5.79
2022-12-10T17:19:24.174Z,5.62
2022-12-10T17:21:52.722Z,5.77
2022-12-10T17:24:21.070Z,5.75
2022-12-10T17:26:50.837Z,5.75
2022-12-10T17:29:22.675Z,5.64
2022-12-10T17:31:51.047Z,5.67
2022-12-10T17:34:19.473Z,5.71
2022-12-10T17:36:49.495Z,5.76
2022-12-10T17:39:22.732Z,5.90
2022-12-10T17:41:51.893Z,5.98
2022-12-10T17:44:22.986Z,6.02
2022-12-10T17:46:51.294Z,5.99
2022-12-10T17:49:20.264Z,5.92
2022-12-10T17:51:49.870Z,5.81
2022-12-10T17:54:18.264Z,5.87
2022-12-10T17:56:47.241Z,5.74
2022-12-10T17:59:16.255Z,5.70
2022-12-10T18:01:48.570Z,5.69
2022-12-10T18:04:18.077Z,5.67
2022-12-10T18:06:46.845Z,5.70
2022-12-10T18:09:16.509Z,5.66
2022-12-10T18:11:46.358Z,5.74
2022-12-10T18:14:15.503Z,5.63
2022-12-10T18:16:44.539Z,5.63
2022-12-10T18:19:15.528Z,5.59
2022-12-10T18:21:44.464Z,5.54
2022-12-10T18:24:13.458Z,5.61
2022-12-10T18:26:44.779Z,5.49
2022-12-10T18:29:15.096Z,5.56
2022-12-10T18:31:45.056Z,5.62
2022-12-10T18:34:16.200Z,5.64
2022-12-10T18:36:46.318Z,5.56
2022-12-10T18:39:18.887Z,5.60
2022-12-10T18:41:49.326Z,5.59
2022-12-10T18:44:20.935Z,5.63
2022-12-10T18:46:51.843Z,5.64
2022-12-10T18:49:21.201Z,5.70
2022-12-10T18:51:49.326Z,5.61
2022-12-10T18:54:18.463Z,5.50
2022-12-10T18:57:31.741Z,5.52
2022-12-10T18:59:36.483Z,5.50
2022-12-10T19:02:04.599Z,5.50
2022-12-10T19:04:32.595Z,5.47
2022-12-10T19:07:01.493Z,5.46
2022-12-10T19:09:32.724Z,5.37
2022-12-10T19:12:02.371Z,5.31
2022-12-10T19:14:30.465Z,5.32
2022-12-10T19:17:01.079Z,5.26
2022-12-10T19:19:29.218Z,5.25
2022-12-10T19:21:57.241Z,5.25
2022-12-10T19:24:25.274Z,5.18
2022-12-10T19:26:53.322Z,5.26
2022-12-10T19:29:24.230Z,5.30
2022-12-10T19:31:52.722Z,5.32
2022-12-10T19:34:21.648Z,5.36
2022-12-10T19:36:50.840Z,5.35
2022-12-10T19:39:20.360Z,5.36
2022-12-10T19:41:48.499Z,5.42
2022-12-10T19:44:16.818Z,5.45
2022-12-10T19:46:46.585Z,5.50
2022-12-10T19:49:16.314Z,5.55
2022-12-10T19:51:44.432Z,5.50
2022-12-10T19:54:12.779Z,5.45
2022-12-10T19:56:42.203Z,5.43
2022-12-10T19:59:15.077Z,5.39
2022-12-10T20:01:43.782Z,5.36
2022-12-10T20:04:14.430Z,5.38
2022-12-10T20:06:44.150Z,5.36
2022-12-10T20:09:19.601Z,5.35
2022-12-10T20:11:48.345Z,5.37
2022-12-10T20:14:16.623Z,5.37
2022-12-10T20:16:44.866Z,5.24
2022-12-10T20:19:16.246Z,5.26
2022-12-10T20:21:44.313Z,5.31
2022-12-10T20:24:13.606Z,5.28
2022-12-10T20:26:43.692Z,5.23
2022-12-10T20:29:18.304Z,5.19
2022-12-10T20:31:47.260Z,5.21
2022-12-10T20:34:17.022Z,5.27
2022-12-10T20:36:45.908Z,5.23
2022-12-10T20:39:19.365Z,5.23
2022-12-10T20:41:48.426Z,5.16
2022-12-10T20:44:16.827Z,5.16
2022-12-10T20:46:45.049Z,5.15
2022-12-10T20:49:13.708Z,5.16
2022-12-10T20:51:43.258Z,5.11
2022-12-10T20:54:12.305Z,5.12
2022-12-10T20:56:40.620Z,5.01
2022-12-10T20:59:08.956Z,5.02
2022-12-10T21:01:37.038Z,5.05
2022-12-10T21:04:05.511Z,5.04
2022-12-10T21:06:34.025Z,5.01
2022-12-10T21:09:03.493Z,5.04
2022-12-10T21:11:31.524Z,5.02
2022-12-10T21:13:59.551Z,5.07
2022-12-10T21:16:28.133Z,5.06
2022-12-10T21:18:56.432Z,5.07
2022-12-10T21:21:26.743Z,4.93
2022-12-10T21:23:56.053Z,4.89
2022-12-10T21:26:26.581Z,4.90
2022-12-10T21:28:54.621Z,4.86
2022-12-10T21:31:25.715Z,4.87
2022-12-10T21:33:54.260Z,4.81
2022-12-10T21:36:23.904Z,4.76
2022-12-10T21:38:53.372Z,4.75
2022-12-10T21:41:41.328Z,4.66
2022-12-10T21:44:11.020Z,4.63
2022-12-10T21:46:40.407Z,4.68
2022-12-10T21:49:09.585Z,4.67
2022-12-10T21:51:40.174Z,4.69
2022-12-10T21:54:09.136Z,4.67
2022-12-10T21:56:37.378Z,4.75
2022-12-10T21:59:05.656Z,4.76
2022-12-10T22:01:35.143Z,4.81
2022-12-10T22:04:03.283Z,4.84
2022-12-10T22:06:31.469Z,4.73
2022-12-10T22:08:59.508Z,4.73
2022-12-10T22:11:27.753Z,4.71
2022-12-10T22:13:56.018Z,4.73
2022-12-10T22:16:24.498Z,4.66
2022-12-10T22:18:53.900Z,4.73
2022-12-10T22:21:23.805Z,4.76
2022-12-10T22:23:52.587Z,4.82
2022-12-10T22:26:21.099Z,4.72
2022-12-10T22:28:49.370Z,4.61
2022-12-10T22:31:17.628Z,4.48
2022-12-10T22:33:46.422Z,4.54
2022-12-10T22:36:19.005Z,4.59
2022-12-10T22:38:47.776Z,4.54
2022-12-10T22:41:16.575Z,4.54
2022-12-10T22:43:52.237Z,4.62
2022-12-10T22:46:21.010Z,4.56
2022-12-10T22:48:49.287Z,4.63
2022-12-10T22:51:19.161Z,4.48
2022-12-10T22:53:47.319Z,4.57
2022-12-10T22:56:16.437Z,4.61
2022-12-10T22:58:45.008Z,4.66
2022-12-10T23:01:17.082Z,4.59
2022-12-10T23:03:45.256Z,4.44
2022-12-10T23:06:13.608Z,4.57
2022-12-10T23:08:43.293Z,4.53
2022-12-10T23:11:12.937Z,4.56
2022-12-10T23:13:41.361Z,4.59
2022-12-10T23:16:14.028Z,4.63
2022-12-10T23:18:42.656Z,4.73
2022-12-10T23:21:19.037Z,4.66
2022-12-10T23:23:48.817Z,4.67
2022-12-10T23:26:17.340Z,4.66
2022-12-10T23:28:45.484Z,4.68
2022-12-10T23:31:14.983Z,4.74
2022-12-10T23:33:44.051Z,4.71
2022-12-10T23:36:12.609Z,4.64
2022-12-10T23:38:41.027Z,4.69
2022-12-10T23:41:12.641Z,4.82
2022-12-10T23:43:40.881Z,4.76
2022-12-10T23:46:09.391Z,4.67
2022-12-10T23:48:38.055Z,4.69
2022-12-10T23:51:06.393Z,4.78
2022-12-10T23:53:34.975Z,4.89
2022-12-10T23:56:05.651Z,4.91
2022-12-10T23:58:35.112Z,4.97
